Time;durP1;ratioP1;P1;durP2;ratioP2;P2;SDS_P1;SDS_P2;PMS_P1;PMS_P2;Temp;Humidity;BMP_temperature;BMP_pressure;BME280_temperature;BME280_humidity;BME280_pressure;Samples;Min_cycle;Max_cycle;Signal;HPM_P1;HPM_P2
2023/06/28 00:02:22;;;;;;;;;11.40;11.40;;;;;13.54;70.93;99407.38;4915033;29;8891;-72
2023/06/28 00:04:54;;;;;;;;;11.80;9.20;;;;;13.80;70.45;99399.41;4914941;29;8962;-70
2023/06/28 00:07:23;;;;;;;;;11.80;10.20;;;;;14.07;70.45;99391.34;4914375;29;8882;-71
2023/06/28 00:09:52;;;;;;;;;13.00;11.00;;;;;14.17;70.52;99383.94;4914676;29;9634;-70
2023/06/28 00:12:22;;;;;;;;;12.80;12.60;;;;;14.77;68.38;99377.19;4914521;29;8879;-70
2023/06/28 00:14:51;;;;;;;;;11.00;11.00;;;;;15.11;66.53;99364.31;4914394;29;8851;-70
2023/06/28 00:17:19;;;;;;;;;11.80;11.80;;;;;15.42;65.16;99363.88;4914522;29;8902;-69
2023/06/28 00:19:48;;;;;;;;;11.20;10.60;;;;;15.75;64.52;99352.72;4913147;29;8872;-71
2023/06/28 00:22:17;;;;;;;;;11.80;11.20;;;;;16.07;63.94;99350.38;4913212;29;8904;-70
2023/06/28 00:24:46;;;;;;;;;13.00;11.40;;;;;16.37;63.46;99350.69;4914521;29;9653;-70
2023/06/28 00:27:15;;;;;;;;;9.60;8.80;;;;;16.58;62.21;99352.34;4928307;29;8909;-70
2023/06/28 00:29:45;;;;;;;;;9.60;9.60;;;;;16.75;61.11;99355.97;4928238;29;8998;-70
2023/06/28 00:32:14;;;;;;;;;9.40;9.40;;;;;16.92;60.11;99357.78;4911685;29;8867;-72
2023/06/28 00:34:43;;;;;;;;;10.40;10.20;;;;;16.90;59.65;99357.84;4912979;29;8871;-70
2023/06/28 00:37:13;;;;;;;;;10.20;9.00;;;;;16.97;59.14;99353.94;4910922;29;9664;-70
2023/06/28 00:39:42;;;;;;;;;10.80;10.60;;;;;16.94;59.67;99354.09;4880255;29;8899;-70
2023/06/28 00:42:11;;;;;;;;;10.00;10.00;;;;;17.11;59.82;99358.56;4928249;29;8995;-69
2023/06/28 00:44:40;;;;;;;;;8.20;8.20;;;;;16.89;59.14;99352.59;4912001;29;8895;-69
2023/06/28 00:47:11;;;;;;;;;8.80;8.80;;;;;17.09;58.69;99343.66;4912573;29;8986;-71
2023/06/28 00:49:42;;;;;;;;;9.40;9.00;;;;;17.23;58.92;99335.84;4914150;29;8880;-70
2023/06/28 00:52:12;;;;;;;;;10.20;10.20;;;;;17.28;58.61;99330.31;4912319;29;8998;-70
2023/06/28 00:54:42;;;;;;;;;9.20;9.00;;;;;17.39;57.61;99323.47;4911731;29;8867;-70
2023/06/28 00:57:11;;;;;;;;;6.60;6.60;;;;;17.41;57.41;99315.44;4911421;29;9005;-70
2023/06/28 00:59:41;;;;;;;;;9.60;9.60;;;;;17.48;57.42;99316.81;4912670;29;8910;-70
2023/06/28 01:02:12;;;;;;;;;7.60;7.60;;;;;17.53;57.23;99322.75;4911972;29;8909;-70
2023/06/28 01:04:41;;;;;;;;;8.60;8.60;;;;;17.32;57.06;99321.22;4927859;29;8957;-71
2023/06/28 01:07:12;;;;;;;;;7.00;7.00;;;;;17.22;56.40;99319.97;4928223;29;8962;-71
2023/06/28 01:09:42;;;;;;;;;8.60;8.60;;;;;17.19;57.40;99313.00;4913557;29;8875;-69
2023/06/28 01:12:11;;;;;;;;;11.20;8.80;;;;;17.28;56.91;99325.84;4902933;29;8885;-72
2023/06/28 01:14:40;;;;;;;;;7.60;7.60;;;;;17.37;57.09;99322.69;4877375;29;8874;-69
2023/06/28 01:17:11;;;;;;;;;10.20;9.20;;;;;17.40;56.59;99327.00;4909133;29;9664;-70
2023/06/28 01:19:40;;;;;;;;;8.60;8.60;;;;;17.35;57.01;99327.25;4894421;29;8882;-70
2023/06/28 01:22:12;;;;;;;;;8.20;8.20;;;;;17.01;57.71;99328.09;4888054;29;9034;-70
2023/06/28 01:24:46;;;;;;;;;8.80;8.80;;;;;16.90;58.12;99326.00;4928120;29;8996;-69
2023/06/28 01:27:15;;;;;;;;;9.00;9.00;;;;;16.70;58.38;99327.00;4913395;29;8898;-71
2023/06/28 01:29:47;;;;;;;;;9.00;8.20;;;;;16.54;58.72;99320.72;4910013;29;8868;-70
2023/06/28 01:32:17;;;;;;;;;8.80;8.00;;;;;16.79;59.34;99315.91;4927677;29;8981;-70
2023/06/28 01:34:46;;;;;;;;;8.00;7.80;;;;;16.77;59.01;99309.81;4913551;29;8871;-71
2023/06/28 01:37:15;;;;;;;;;6.00;6.00;;;;;16.84;58.61;99306.88;4913447;29;8883;-70
2023/06/28 01:39:47;;;;;;;;;9.80;9.20;;;;;16.80;59.40;99322.94;4913474;29;8886;-70
2023/06/28 01:42:17;;;;;;;;;9.80;9.00;;;;;16.38;59.84;99333.88;4913130;29;8887;-71
2023/06/28 01:44:46;;;;;;;;;11.00;11.00;;;;;15.63;62.65;99340.88;4913244;29;8879;-71
2023/06/28 01:47:15;;;;;;;;;10.00;10.00;;;;;14.56;65.61;99364.78;4910843;29;8863;-69
2023/06/28 01:49:44;;;;;;;;;8.80;8.80;;;;;14.33;67.05;99371.00;4910298;29;9000;-69
2023/06/28 01:52:13;;;;;;;;;11.00;10.60;;;;;14.50;66.04;99363.25;4911634;29;8863;-70
2023/06/28 01:54:42;;;;;;;;;9.80;9.40;;;;;14.09;66.88;99360.44;4922915;29;8873;-70
2023/06/28 01:57:13;;;;;;;;;9.20;9.20;;;;;13.97;68.46;99359.13;4908196;29;8878;-71
2023/06/28 01:59:42;;;;;;;;;10.00;10.00;;;;;13.99;68.40;99370.50;4908386;29;8886;-69
2023/06/28 02:02:11;;;;;;;;;9.20;9.00;;;;;14.07;68.10;99355.25;4913817;29;8879;-69
2023/06/28 02:04:40;;;;;;;;;9.00;8.80;;;;;14.03;67.74;99347.47;4926721;29;8878;-70
2023/06/28 02:07:08;;;;;;;;;10.00;9.00;;;;;14.36;67.05;99341.81;4927093;29;8901;-71
2023/06/28 02:09:37;;;;;;;;;11.60;11.60;;;;;14.86;65.00;99329.16;4912638;29;8929;-70
2023/06/28 02:12:07;;;;;;;;;7.40;7.40;;;;;15.15;64.50;99320.91;4927128;29;8856;-71
2023/06/28 02:14:39;;;;;;;;;10.60;10.60;;;;;15.54;63.29;99328.00;4895134;29;8898;-69
2023/06/28 02:17:13;;;;;;;;;10.60;9.60;;;;;15.45;62.07;99327.50;4912256;29;8887;-68
2023/06/28 02:19:44;;;;;;;;;12.00;11.40;;;;;15.62;62.16;99324.13;4911251;29;8863;-70
2023/06/28 02:22:12;;;;;;;;;10.80;10.80;;;;;15.71;61.75;99317.53;4879724;29;8875;-71
2023/06/28 02:24:42;;;;;;;;;10.60;10.60;;;;;15.80;61.58;99306.50;4912442;29;8881;-70
2023/06/28 02:27:11;;;;;;;;;9.80;9.80;;;;;16.07;61.22;99302.66;4912517;29;8989;-69
2023/06/28 02:29:41;;;;;;;;;8.80;8.00;;;;;16.30;60.75;99297.06;4894922;29;8882;-70
2023/06/28 02:32:10;;;;;;;;;12.80;12.00;;;;;16.39;59.61;99299.28;4926971;29;8863;-70
2023/06/28 02:34:39;;;;;;;;;11.80;9.60;;;;;16.35;59.78;99308.31;4893575;29;8891;-72
2023/06/28 02:37:08;;;;;;;;;12.40;11.80;;;;;16.34;59.10;99311.94;4911122;29;8879;-70
2023/06/28 02:39:40;;;;;;;;;13.20;12.00;;;;;15.61;61.57;99318.91;4911415;29;8883;-70
2023/06/28 02:42:09;;;;;;;;;15.80;14.40;;;;;14.85;64.11;99331.91;4909973;29;8898;-70
2023/06/28 02:44:38;;;;;;;;;12.20;9.20;;;;;13.73;69.08;99346.81;4911706;29;8919;-70
2023/06/28 02:47:08;;;;;;;;;17.40;17.40;;;;;13.43;71.06;99349.66;4912197;29;9645;-71
2023/06/28 02:49:37;;;;;;;;;20.40;17.80;;;;;13.05;72.55;99363.31;4912574;29;8910;-70
2023/06/28 02:52:06;;;;;;;;;21.60;21.60;;;;;13.20;72.50;99364.53;4890094;29;8921;-70
2023/06/28 02:54:35;;;;;;;;;21.60;21.60;;;;;13.36;72.09;99356.94;4859653;29;8891;-70
2023/06/28 02:57:08;;;;;;;;;29.80;28.80;;;;;13.66;70.15;99356.75;4886790;29;8889;-70
2023/06/28 02:59:43;;;;;;;;;30.20;28.60;;;;;13.42;71.64;99347.94;4871652;29;8900;-71
2023/06/28 03:02:15;;;;;;;;;33.60;31.00;;;;;14.21;68.85;99341.47;4871754;29;8901;-70
2023/06/28 03:04:45;;;;;;;;;28.60;28.00;;;;;14.62;67.20;99336.31;4871912;29;8893;-70
2023/06/28 03:07:15;;;;;;;;;29.60;29.20;;;;;14.87;65.35;99330.03;4841084;29;8854;-69
2023/06/28 03:09:44;;;;;;;;;26.60;24.80;;;;;14.84;64.97;99335.44;4888264;29;8965;-70
2023/06/28 03:12:13;;;;;;;;;22.40;20.80;;;;;15.00;64.81;99338.28;4889991;29;8906;-70
2023/06/28 03:14:43;;;;;;;;;27.40;26.40;;;;;14.79;64.84;99353.28;4890098;29;8879;-71
2023/06/28 03:17:14;;;;;;;;;20.20;20.20;;;;;14.86;64.66;99355.63;4875734;29;9006;-70
2023/06/28 03:19:43;;;;;;;;;20.00;20.00;;;;;15.10;63.98;99355.53;4894046;29;8906;-70
2023/06/28 03:22:12;;;;;;;;;19.00;18.20;;;;;15.37;63.23;99347.31;4893800;29;8921;-70
2023/06/28 03:24:42;;;;;;;;;29.80;28.00;;;;;15.47;61.95;99345.97;4877518;29;8872;-69
2023/06/28 03:27:11;;;;;;;;;18.80;17.60;;;;;15.43;62.00;99358.50;4893889;29;8883;-70
2023/06/28 03:29:41;;;;;;;;;20.20;17.40;;;;;14.76;64.59;99375.47;4908733;29;8942;-69
2023/06/28 03:32:10;;;;;;;;;16.20;15.60;;;;;14.89;64.41;99372.31;4914346;29;8867;-71
2023/06/28 03:34:41;;;;;;;;;19.60;18.00;;;;;14.98;64.15;99366.63;4914112;29;8848;-69
2023/06/28 03:37:13;;;;;;;;;14.60;13.60;;;;;15.20;63.29;99355.97;4913794;29;8883;-70
2023/06/28 03:39:42;;;;;;;;;17.00;16.80;;;;;15.37;62.50;99342.84;4897682;29;8915;-69
2023/06/28 03:42:11;;;;;;;;;21.20;19.00;;;;;15.74;61.72;99351.00;4914133;29;8969;-70
2023/06/28 03:44:40;;;;;;;;;15.60;15.60;;;;;15.97;61.23;99353.44;4897544;29;8882;-70
2023/06/28 03:47:09;;;;;;;;;17.20;16.60;;;;;15.88;60.85;99340.63;4929202;29;8911;-71
2023/06/28 03:49:38;;;;;;;;;18.00;16.80;;;;;16.17;60.31;99338.38;4915046;29;8890;-71
2023/06/28 03:52:09;;;;;;;;;34.50;31.25;;;;;16.13;60.56;99347.41;4929283;29;8883;-70
2023/06/28 03:54:38;;;;;;;;;14.60;13.20;;;;;15.95;60.60;99339.41;4915369;29;8869;-71
2023/06/28 03:57:07;;;;;;;;;18.00;18.00;;;;;16.06;60.17;99335.38;4912964;29;8887;-70
2023/06/28 03:59:36;;;;;;;;;18.20;18.00;;;;;15.76;60.58;99336.75;4897436;29;8863;-71
2023/06/28 04:02:05;;;;;;;;;20.00;19.00;;;;;15.67;61.21;99337.16;4914813;29;8864;-70
2023/06/28 04:04:34;;;;;;;;;15.80;15.00;;;;;15.96;60.48;99341.13;4912395;29;8867;-70
2023/06/28 04:07:03;;;;;;;;;16.60;15.00;;;;;16.17;60.02;99335.72;4915042;29;9606;-70
2023/06/28 04:09:34;;;;;;;;;31.75;30.25;;;;;16.32;59.36;99337.69;4912209;29;8919;-70
2023/06/28 04:12:02;;;;;;;;;17.40;17.40;;;;;16.37;59.79;99332.97;4914550;29;8883;-69
2023/06/28 04:14:31;;;;;;;;;15.40;14.40;;;;;16.37;59.48;99338.28;4913572;29;8868;-70
2023/06/28 04:17:04;;;;;;;;;18.20;17.00;;;;;16.23;59.55;99325.69;4929215;29;8852;-70
2023/06/28 04:19:33;;;;;;;;;15.00;14.00;;;;;16.47;59.09;99327.28;4914572;29;8934;-71
2023/06/28 04:22:02;;;;;;;;;1.40;1.40;;;;;15.92;61.10;99328.94;4914506;29;8860;-69
2023/06/28 04:24:31;;;;;;;;;13.60;13.60;;;;;16.30;60.43;99328.91;4914111;29;8894;-69
2023/06/28 04:27:01;;;;;;;;;29.60;29.60;;;;;16.52;59.94;99328.75;4914434;29;9479;-70
2023/06/28 04:29:30;;;;;;;;;15.40;15.40;;;;;16.63;59.82;99333.56;4910675;29;10044;-70
2023/06/28 04:32:02;;;;;;;;;15.20;15.20;;;;;16.28;59.64;99346.69;4914429;29;8991;-70
2023/06/28 04:34:31;;;;;;;;;11.80;11.40;;;;;16.31;60.00;99354.50;4914114;29;8859;-70
2023/06/28 04:37:00;;;;;;;;;13.80;13.60;;;;;16.46;59.79;99350.28;4913853;29;8879;-71
2023/06/28 04:39:43;;;;;;;;;19.80;16.40;;;;;16.48;59.61;99352.88;4895107;29;9535;-70
2023/06/28 04:42:15;;;;;;;;;14.20;14.20;;;;;16.49;59.40;99357.22;4913681;29;8887;-70
2023/06/28 04:44:47;;;;;;;;;18.60;17.00;;;;;16.20;60.63;99351.50;4914307;29;9002;-70
2023/06/28 04:47:16;;;;;;;;;31.25;29.75;;;;;16.46;60.37;99346.78;4930225;29;8882;-71
2023/06/28 04:49:48;;;;;;;;;21.80;20.80;;;;;16.73;60.00;99348.06;4913653;29;8875;-70
2023/06/28 04:52:18;;;;;;;;;14.60;14.60;;;;;16.31;60.63;99354.50;4911693;29;8864;-71
2023/06/28 04:54:48;;;;;;;;;14.80;13.60;;;;;16.06;61.76;99353.94;4914303;29;8913;-72
2023/06/28 04:57:20;;;;;;;;;16.20;16.20;;;;;16.05;61.47;99354.88;4913916;29;8875;-72
2023/06/28 04:59:49;;;;;;;;;14.40;14.40;;;;;16.43;60.58;99345.94;4913814;29;8863;-71
2023/06/28 05:02:21;;;;;;;;;16.80;15.80;;;;;16.51;60.08;99339.44;4911944;29;8887;-70
2023/06/28 05:04:51;;;;;;;;;12.40;11.80;;;;;16.76;60.02;99342.63;4913460;29;8875;-71
2023/06/28 05:07:19;;;;;;;;;12.00;12.00;;;;;16.57;59.19;99332.06;4913334;29;8917;-71
2023/06/28 05:09:49;;;;;;;;;15.60;14.80;;;;;16.48;59.96;99339.63;4928077;29;8863;-71
2023/06/28 05:12:19;;;;;;;;;12.00;11.40;;;;;16.66;59.27;99335.19;4898831;29;8895;-72
2023/06/28 05:14:48;;;;;;;;;14.80;14.80;;;;;16.71;59.55;99339.31;4913570;29;8965;-70
2023/06/28 05:17:17;;;;;;;;;16.80;16.80;;;;;16.54;59.96;99340.16;4927106;29;8879;-71
2023/06/28 05:19:46;;;;;;;;;12.80;12.40;;;;;16.82;59.44;99343.25;4927952;29;8902;-71
2023/06/28 05:22:14;;;;;;;;;15.60;12.40;;;;;17.07;59.20;99343.72;4927593;29;8879;-71
2023/06/28 05:24:43;;;;;;;;;14.60;13.20;;;;;17.28;58.82;99347.09;4913496;29;8885;-74
2023/06/28 05:27:12;;;;;;;;;17.80;17.20;;;;;17.33;57.70;99341.56;4913575;29;9021;-72
2023/06/28 05:29:42;;;;;;;;;16.40;15.40;;;;;16.79;59.31;99350.41;4913555;29;8867;-72
2023/06/28 05:32:13;;;;;;;;;16.00;15.60;;;;;16.65;60.37;99349.41;4913323;29;8984;-73
2023/06/28 05:34:42;;;;;;;;;19.60;16.20;;;;;16.90;59.41;99360.50;4911402;29;9640;-71
2023/06/28 05:37:11;;;;;;;;;11.60;11.60;;;;;16.97;59.45;99348.63;4927532;29;9684;-73
2023/06/28 05:39:41;;;;;;;;;13.00;13.00;;;;;17.09;59.26;99346.28;4891312;29;8908;-74
2023/06/28 05:42:10;;;;;;;;;15.80;14.80;;;;;17.04;58.66;99353.63;4925556;29;8902;-73
2023/06/28 05:44:39;;;;;;;;;14.20;12.60;;;;;17.33;58.09;99358.34;4913217;29;8998;-71
2023/06/28 05:47:09;;;;;;;;;16.00;16.00;;;;;17.51;58.13;99353.88;4915366;29;8887;-77
2023/06/28 05:49:41;;;;;;;;;16.80;16.80;;;;;17.68;57.72;99352.09;4913601;29;8867;-71
2023/06/28 05:52:09;;;;;;;;;16.00;16.00;;;;;17.81;57.33;99352.31;4927236;29;8883;-75
2023/06/28 05:54:38;;;;;;;;;23.60;23.60;;;;;17.85;57.23;99356.50;4912456;29;8986;-73
2023/06/28 05:57:07;;;;;;;;;27.60;23.60;;;;;17.45;56.86;99354.19;4912936;29;8970;-73
2023/06/28 05:59:36;;;;;;;;;24.00;24.00;;;;;17.68;56.36;99352.94;4910795;29;8855;-74
2023/06/28 06:02:05;;;;;;;;;23.80;23.40;;;;;17.73;56.74;99350.06;4913048;29;8895;-74
2023/06/28 06:04:36;;;;;;;;;21.00;20.20;;;;;17.97;56.18;99339.91;4912799;29;8966;-74
2023/06/28 06:07:05;;;;;;;;;23.20;21.00;;;;;17.95;55.14;99347.97;4911156;29;8871;-71
2023/06/28 06:09:34;;;;;;;;;31.00;28.00;;;;;17.82;55.93;99340.75;4912272;29;8867;-72
2023/06/28 06:12:03;;;;;;;;;27.20;23.80;;;;;17.91;56.90;99346.41;4912660;29;8903;-73
2023/06/28 06:14:34;;;;;;;;;20.40;19.60;;;;;18.18;56.39;99331.72;4912079;29;8908;-73
2023/06/28 06:17:03;;;;;;;;;15.20;14.20;;;;;18.11;56.40;99329.38;4911380;29;8879;-73
2023/06/28 06:19:32;;;;;;;;;12.00;12.00;;;;;18.23;55.86;99341.16;4911388;29;8966;-77
2023/06/28 06:22:03;;;;;;;;;14.00;14.00;;;;;18.22;56.07;99343.91;4907318;29;8958;-74
2023/06/28 06:24:31;;;;;;;;;13.60;13.40;;;;;18.42;55.25;99350.72;4900418;29;8863;-73
2023/06/28 06:27:01;;;;;;;;;16.00;15.40;;;;;18.18;55.30;99360.97;4905429;29;9006;-74
2023/06/28 06:29:30;;;;;;;;;16.40;16.40;;;;;17.84;57.08;99365.44;4893983;29;9011;-75
2023/06/28 06:31:59;;;;;;;;;15.60;14.60;;;;;17.97;56.56;99372.66;4890593;29;9760;-71
2023/06/28 06:34:28;;;;;;;;;14.80;13.80;;;;;18.27;55.92;99371.06;4891627;29;8863;-75
2023/06/28 06:36:57;;;;;;;;;17.20;17.20;;;;;17.98;55.11;99369.03;4875286;29;8946;-73
2023/06/28 06:39:30;;;;;;;;;17.20;16.80;;;;;17.60;56.79;99379.09;4874538;29;8891;-73
2023/06/28 06:41:58;;;;;;;;;17.60;15.60;;;;;17.79;56.17;99371.00;4874577;29;8887;-76
2023/06/28 06:44:27;;;;;;;;;18.40;17.40;;;;;17.89;56.03;99369.56;4890234;29;10044;-74
2023/06/28 06:46:56;;;;;;;;;16.40;15.80;;;;;16.71;59.26;99386.25;4890258;29;8902;-65
2023/06/28 06:49:25;;;;;;;;;18.00;17.60;;;;;16.26;60.93;99376.88;4889967;29;8915;-72
2023/06/28 06:51:54;;;;;;;;;18.00;17.40;;;;;16.30;61.00;99384.59;4889429;29;8880;-70
2023/06/28 06:54:24;;;;;;;;;16.60;16.40;;;;;16.59;60.38;99387.72;4908055;29;8981;-70
2023/06/28 06:56:54;;;;;;;;;18.60;17.80;;;;;16.59;60.23;99385.91;4908698;29;8981;-70
2023/06/28 06:59:24;;;;;;;;;16.60;15.80;;;;;16.69;60.21;99383.66;4908849;29;8908;-71
2023/06/28 07:01:55;;;;;;;;;16.60;16.60;;;;;17.10;59.26;99380.75;4909191;29;8904;-70
2023/06/28 07:04:25;;;;;;;;;21.80;21.00;;;;;17.42;58.03;99374.72;4911666;29;8868;-71
2023/06/28 07:06:55;;;;;;;;;21.20;19.00;;;;;17.48;57.73;99380.59;4911905;29;8949;-69
2023/06/28 07:09:24;;;;;;;;;19.20;19.20;;;;;17.34;58.55;99378.69;4912222;29;9082;-71
2023/06/28 07:11:54;;;;;;;;;23.40;23.40;;;;;17.24;59.22;99384.50;4911748;29;8883;-72
2023/06/28 07:14:23;;;;;;;;;23.60;23.20;;;;;17.43;59.44;99390.59;4912101;29;8927;-71
2023/06/28 07:16:51;;;;;;;;;22.40;22.40;;;;;17.38;59.42;99379.34;4909705;29;8902;-71
2023/06/28 07:19:20;;;;;;;;;20.80;20.80;;;;;16.81;61.20;99384.84;4911293;29;8868;-70
2023/06/28 07:21:49;;;;;;;;;25.00;24.00;;;;;16.91;61.00;99393.22;4911443;29;8891;-70
2023/06/28 07:24:18;;;;;;;;;23.20;22.20;;;;;17.19;60.35;99395.34;4911914;29;8863;-69
2023/06/28 07:26:47;;;;;;;;;22.40;21.80;;;;;17.10;60.38;99396.69;4910023;29;8905;-70
2023/06/28 07:29:17;;;;;;;;;25.80;24.40;;;;;17.32;60.37;99391.16;4911940;29;8985;-71
2023/06/28 07:31:46;;;;;;;;;24.60;23.00;;;;;17.41;59.93;99388.97;4912186;29;8860;-71
2023/06/28 07:34:15;;;;;;;;;24.80;22.60;;;;;17.57;59.80;99387.22;4911969;29;8978;-71
2023/06/28 07:36:43;;;;;;;;;20.80;20.80;;;;;17.84;59.48;99390.22;4911592;29;8871;-70
2023/06/28 07:39:12;;;;;;;;;24.20;21.20;;;;;17.65;59.13;99393.00;4911532;29;8887;-70
2023/06/28 07:41:41;;;;;;;;;21.00;21.00;;;;;17.66;59.53;99394.72;4911290;29;8870;-70
2023/06/28 07:44:10;;;;;;;;;25.40;24.00;;;;;17.56;59.22;99402.31;4911323;29;8942;-71
2023/06/28 07:46:40;;;;;;;;;21.80;20.20;;;;;17.57;59.22;99412.03;4910019;29;8919;-71
2023/06/28 07:49:09;;;;;;;;;24.60;22.40;;;;;17.58;59.23;99416.38;4911613;29;8909;-69
2023/06/28 07:51:37;;;;;;;;;25.60;25.20;;;;;17.30;59.33;99414.28;4911252;29;8882;-71
2023/06/28 07:54:06;;;;;;;;;23.40;22.80;;;;;17.18;60.41;99418.41;4911671;29;8950;-71
2023/06/28 07:56:41;;;;;;;;;27.20;26.40;;;;;16.99;60.99;99423.78;4911472;29;8883;-70
2023/06/28 07:59:10;;;;;;;;;25.80;25.40;;;;;17.02;60.93;99413.94;4911418;29;8938;-71
2023/06/28 08:01:40;;;;;;;;;27.40;26.00;;;;;17.36;60.54;99407.78;4911141;29;9018;-70
2023/06/28 08:04:09;;;;;;;;;23.00;22.40;;;;;17.45;59.86;99419.75;4913566;29;8899;-72
2023/06/28 08:06:37;;;;;;;;;30.60;27.80;;;;;17.29;60.02;99411.72;4914747;29;9676;-71
2023/06/28 08:09:06;;;;;;;;;28.40;27.60;;;;;17.40;59.81;99417.34;4914653;29;8902;-71
2023/06/28 08:11:35;;;;;;;;;27.20;26.00;;;;;17.55;59.75;99431.63;4914795;29;9637;-71
2023/06/28 08:14:04;;;;;;;;;28.20;26.40;;;;;17.31;59.77;99423.13;4914550;29;8886;-70
2023/06/28 08:16:33;;;;;;;;;26.60;25.40;;;;;17.63;59.28;99426.78;4914348;29;9113;-71
2023/06/28 08:19:03;;;;;;;;;29.20;26.40;;;;;17.09;60.33;99423.31;4914880;29;8894;-70
2023/06/28 08:21:32;;;;;;;;;30.60;29.60;;;;;17.47;59.50;99432.03;4914768;29;8875;-71
2023/06/28 08:24:01;;;;;;;;;26.80;25.80;;;;;17.82;58.27;99436.47;4914664;29;9732;-71
2023/06/28 08:26:29;;;;;;;;;27.20;26.20;;;;;18.03;57.53;99429.13;4914759;29;8887;-70
2023/06/28 08:28:58;;;;;;;;;31.20;30.20;;;;;17.80;58.15;99438.31;4914278;29;8903;-71
2023/06/28 08:31:29;;;;;;;;;27.60;26.40;;;;;17.92;57.26;99435.03;4914412;29;8883;-70
2023/06/28 08:33:58;;;;;;;;;32.60;29.60;;;;;17.79;57.54;99426.81;4913805;29;9561;-71
2023/06/28 08:36:29;;;;;;;;;26.20;24.20;;;;;18.11;56.62;99438.44;4914671;29;8867;-69
2023/06/28 08:38:58;;;;;;;;;26.60;26.20;;;;;18.28;56.68;99442.00;4914170;29;8898;-70
2023/06/28 08:41:27;;;;;;;;;29.00;26.40;;;;;18.28;56.28;99437.53;4914504;29;8875;-71
2023/06/28 08:43:59;;;;;;;;;32.60;31.40;;;;;17.98;57.57;99438.19;4914475;29;9645;-71
2023/06/28 08:46:30;;;;;;;;;33.40;30.80;;;;;18.05;57.84;99438.78;4914428;29;8890;-71
2023/06/28 08:49:01;;;;;;;;;33.80;32.00;;;;;18.16;57.32;99435.53;4914025;29;8965;-70
2023/06/28 08:51:33;;;;;;;;;33.20;31.60;;;;;18.02;57.87;99440.69;4914144;29;8860;-70
2023/06/28 08:54:02;;;;;;;;;36.20;31.60;;;;;17.86;58.63;99454.81;4913800;29;8887;-71
2023/06/28 08:56:31;;;;;;;;;32.50;31.50;;;;;18.01;58.25;99453.16;4913891;29;8893;-70
2023/06/28 08:59:02;;;;;;;;;28.20;27.40;;;;;17.91;58.80;99451.91;4913996;29;8883;-71
2023/06/28 09:01:33;;;;;;;;;33.20;30.60;;;;;18.01;57.74;99454.97;4913919;29;8895;-71
2023/06/28 09:04:04;;;;;;;;;36.25;33.25;;;;;17.53;59.06;99450.34;4913456;29;8978;-71
2023/06/28 09:06:35;;;;;;;;;35.75;32.00;;;;;16.70;62.40;99462.38;4913870;29;8856;-70
2023/06/28 09:09:04;;;;;;;;;31.00;30.20;;;;;16.79;62.71;99464.56;4913567;29;9038;-71
2023/06/28 09:11:34;;;;;;;;;33.25;32.00;;;;;17.20;61.00;99467.00;4896504;29;9009;-71
2023/06/28 09:14:03;;;;;;;;;34.50;32.75;;;;;16.51;63.42;99470.34;4913344;29;9792;-71
2023/06/28 09:16:31;;;;;;;;;31.60;29.80;;;;;16.37;64.10;99486.00;4895297;29;8847;-70
2023/06/28 09:19:00;;;;;;;;;32.75;31.00;;;;;16.43;64.26;99496.31;4913677;29;8945;-70
2023/06/28 09:21:31;;;;;;;;;31.00;30.40;;;;;16.12;65.87;99504.81;4914396;29;8868;-71
2023/06/28 09:24:01;;;;;;;;;30.40;28.40;;;;;15.84;67.69;99498.94;4913504;29;8887;-71
2023/06/28 09:26:31;;;;;;;;;32.00;30.75;;;;;15.98;66.95;99503.66;4913259;29;8895;-72
2023/06/28 09:29:01;;;;;;;;;30.40;29.80;;;;;15.76;67.83;99509.00;4913131;29;8863;-70
2023/06/28 09:31:32;;;;;;;;;30.20;29.00;;;;;15.60;68.85;99508.81;4913243;29;8894;-71
2023/06/28 09:34:01;;;;;;;;;33.00;30.25;;;;;15.44;70.07;99503.25;4913451;29;8901;-71
2023/06/28 09:36:30;;;;;;;;;32.60;31.40;;;;;15.38;71.09;99505.31;4913206;29;9045;-72
2023/06/28 09:39:04;;;;;;;;;33.40;30.60;;;;;15.01;72.74;99502.34;4911810;29;8856;-71
2023/06/28 09:41:38;;;;;;;;;26.80;25.40;;;;;14.84;73.49;99500.38;4913397;29;9034;-71
2023/06/28 09:44:09;;;;;;;;;25.60;23.20;;;;;14.68;74.29;99510.66;4912774;29;8875;-72
2023/06/28 09:46:44;;;;;;;;;32.00;29.20;;;;;14.88;73.42;99511.69;4907285;29;8916;-71
2023/06/28 09:49:21;;;;;;;;;30.40;29.00;;;;;14.82;73.86;99517.25;4894176;29;8981;-70
2023/06/28 09:51:57;;;;;;;;;26.20;26.20;;;;;14.79;74.60;99518.25;4894506;29;8846;-71
2023/06/28 09:54:35;;;;;;;;;31.00;27.80;;;;;14.67;74.92;99516.88;4894085;29;8882;-71
2023/06/28 09:57:04;;;;;;;;;33.40;28.20;;;;;14.85;74.22;99511.84;4900067;29;8974;-71
2023/06/28 09:59:34;;;;;;;;;27.60;26.40;;;;;14.66;74.84;99512.53;4913280;29;8871;-72
2023/06/28 10:02:07;;;;;;;;;28.40;28.20;;;;;14.81;73.49;99510.22;4913461;29;8997;-70
2023/06/28 10:04:38;;;;;;;;;33.00;28.80;;;;;15.06;72.08;99516.28;4913413;29;8973;-71
2023/06/28 10:07:10;;;;;;;;;26.40;25.80;;;;;15.06;70.84;99513.63;4913157;29;8909;-72
2023/06/28 10:09:41;;;;;;;;;28.60;26.80;;;;;14.68;71.99;99518.59;4909847;29;8882;-70
2023/06/28 10:12:13;;;;;;;;;28.60;28.20;;;;;14.93;71.29;99508.91;4910286;29;8866;-71
2023/06/28 10:14:45;;;;;;;;;29.80;29.40;;;;;14.87;70.63;99502.06;4894236;29;8890;-71
2023/06/28 10:17:17;;;;;;;;;26.60;25.80;;;;;14.58;71.67;99501.34;4910143;29;8881;-70
2023/06/28 10:19:47;;;;;;;;;30.40;27.00;;;;;15.34;70.03;99503.69;4910023;29;8924;-69
2023/06/28 10:22:16;;;;;;;;;24.80;21.60;;;;;15.82;66.38;99494.63;4910509;29;8884;-69
2023/06/28 10:24:47;;;;;;;;;25.00;25.00;;;;;15.36;67.55;99494.78;4909932;29;8920;-71
2023/06/28 10:27:17;;;;;;;;;23.60;23.20;;;;;15.96;65.69;99486.94;4909981;29;8878;-71
2023/06/28 10:29:47;;;;;;;;;25.40;24.40;;;;;16.45;62.63;99480.38;4909930;29;8893;-70
2023/06/28 10:32:17;;;;;;;;;27.20;25.80;;;;;15.73;64.65;99485.28;4910162;29;8872;-71
2023/06/28 10:34:47;;;;;;;;;23.40;23.20;;;;;15.80;64.77;99486.75;4909983;29;8952;-71
2023/06/28 10:37:21;;;;;;;;;23.00;21.60;;;;;16.49;62.75;99484.59;4909781;29;8900;-71
2023/06/28 10:39:53;;;;;;;;;23.00;22.00;;;;;15.82;62.07;99484.03;4878951;29;8951;-71
2023/06/28 10:42:22;;;;;;;;;21.00;19.40;;;;;16.53;61.12;99472.91;4912581;29;8943;-71
2023/06/28 10:44:52;;;;;;;;;23.60;23.20;;;;;16.67;60.04;99454.53;4912438;29;8883;-72
2023/06/28 10:47:22;;;;;;;;;22.00;21.20;;;;;17.16;59.67;99456.59;4912286;29;8907;-71
2023/06/28 10:50:08;;;;;;;;;20.00;19.60;;;;;17.49;57.97;99462.03;4911136;29;8879;-71
2023/06/28 10:52:45;;;;;;;;;16.60;16.20;;;;;17.73;56.55;99456.41;4909973;29;8883;-70
2023/06/28 10:55:18;;;;;;;;;16.60;16.40;;;;;17.93;55.62;99453.56;4912308;29;9622;-72
2023/06/28 10:58:04;;;;;;;;;14.00;13.40;;;;;18.27;52.46;99459.75;4912590;29;8871;-71
2023/06/28 11:00:44;;;;;;;;;13.20;13.20;;;;;18.53;51.60;99460.13;4912268;29;8871;-70
2023/06/28 11:03:15;;;;;;;;;12.20;12.20;;;;;18.50;49.71;99461.16;4912319;29;8890;-71
2023/06/28 11:05:54;;;;;;;;;11.80;11.60;;;;;18.79;50.05;99448.03;4909971;29;9031;-72
2023/06/28 11:08:37;;;;;;;;;16.00;15.40;;;;;18.77;49.85;99457.03;4912160;29;8871;-71
2023/06/28 11:11:08;;;;;;;;;17.40;16.20;;;;;18.57;50.33;99482.09;4910623;29;9001;-72
2023/06/28 11:13:46;;;;;;;;;15.40;14.40;;;;;18.82;50.48;99476.28;4911608;29;8871;-71
2023/06/28 11:16:19;;;;;;;;;14.80;14.80;;;;;19.07;50.35;99484.63;4912226;29;8887;-70
2023/06/28 11:18:49;;;;;;;;;14.60;14.20;;;;;19.30;49.77;99485.94;4894555;29;8871;-71
2023/06/28 11:21:19;;;;;;;;;16.40;16.40;;;;;19.34;48.48;99475.97;4911976;29;8890;-70
2023/06/28 11:23:49;;;;;;;;;13.80;13.00;;;;;19.26;48.37;99471.09;4911850;29;8871;-72
2023/06/28 11:26:33;;;;;;;;;11.40;11.40;;;;;19.82;45.99;99467.81;4912111;29;9002;-72
2023/06/28 11:29:02;;;;;;;;;10.40;10.40;;;;;19.70;44.57;99478.28;4911769;29;8851;-71
2023/06/28 11:31:40;;;;;;;;;10.40;10.00;;;;;20.17;44.33;99478.16;4909441;29;8909;-71
2023/06/28 11:34:15;;;;;;;;;11.60;11.60;;;;;20.12;44.61;99482.91;4909775;29;9704;-72
2023/06/28 11:36:44;;;;;;;;;13.60;13.20;;;;;19.89;45.18;99491.38;4911558;29;8990;-71
2023/06/28 11:39:18;;;;;;;;;10.00;10.00;;;;;20.40;42.32;99485.59;4914745;29;8974;-71
2023/06/28 11:41:49;;;;;;;;;6.20;6.20;;;;;20.67;39.87;99488.34;4916120;29;9046;-69